createdAt,value
2023-04-06T00:00:38.139Z,2.63
2023-04-06T00:02:41.343Z,2.20
2023-04-06T00:04:44.088Z,2.43
2023-04-06T00:06:48.388Z,2.37
2023-04-06T00:08:51.391Z,2.33
2023-04-06T00:10:54.131Z,2.40
2023-04-06T00:12:57.621Z,2.23
2023-04-06T00:15:02.403Z,2.40
2023-04-06T00:17:05.180Z,2.20
2023-04-06T00:19:08.309Z,2.50
2023-04-06T00:21:13.932Z,2.43
2023-04-06T00:23:18.417Z,2.20
2023-04-06T00:25:21.134Z,2.60
2023-04-06T00:27:23.839Z,2.40
2023-04-06T00:29:26.599Z,2.70
2023-04-06T00:31:29.811Z,2.70
2023-04-06T00:33:32.615Z,2.63
2023-04-06T00:35:35.382Z,2.70
2023-04-06T00:37:38.117Z,2.60
2023-04-06T00:39:42.163Z,3.07
2023-04-06T00:41:46.155Z,2.43
2023-04-06T00:43:48.944Z,2.67
2023-04-06T00:45:52.174Z,2.37
2023-04-06T00:47:55.045Z,2.70
2023-04-06T00:49:58.208Z,2.33
2023-04-06T00:52:00.969Z,2.73
2023-04-06T00:54:04.053Z,3.07
2023-04-06T00:56:10.722Z,2.60
2023-04-06T00:58:13.463Z,2.53
2023-04-06T01:00:17.087Z,2.70
2023-04-06T01:02:20.220Z,2.50
2023-04-06T01:04:23.678Z,2.43
2023-04-06T01:06:26.391Z,2.50
2023-04-06T01:08:29.951Z,2.63
2023-04-06T01:10:33.150Z,2.70
2023-04-06T01:12:38.333Z,2.87
2023-04-06T01:14:41.075Z,2.47
2023-04-06T01:16:43.826Z,2.53
2023-04-06T01:18:46.942Z,2.63
2023-04-06T01:20:49.653Z,2.33
2023-04-06T01:22:53.692Z,2.67
2023-04-06T01:24:56.445Z,2.57
2023-04-06T01:26:59.658Z,2.80
2023-04-06T01:29:02.420Z,2.27
2023-04-06T01:31:05.695Z,2.97
2023-04-06T01:33:08.524Z,2.57
2023-04-06T01:35:11.757Z,2.33
2023-04-06T01:37:14.512Z,2.87
2023-04-06T01:39:18.576Z,2.47
2023-04-06T01:41:21.487Z,2.17
2023-04-06T01:43:24.775Z,2.43
2023-04-06T01:45:27.549Z,2.30
2023-04-06T01:47:30.323Z,2.47
2023-04-06T01:49:33.025Z,2.40
2023-04-06T01:51:36.252Z,2.40
2023-04-06T01:53:38.946Z,2.20
2023-04-06T01:55:43.009Z,2.53
2023-04-06T01:57:45.844Z,2.63
2023-04-06T01:59:49.047Z,2.30
2023-04-06T02:01:51.802Z,2.60
2023-04-06T02:03:54.513Z,2.40
2023-04-06T02:05:57.243Z,2.60
2023-04-06T02:08:00.364Z,2.37
2023-04-06T02:10:03.113Z,2.70
2023-04-06T02:12:07.507Z,2.27
2023-04-06T02:14:10.249Z,2.43
2023-04-06T02:16:13.437Z,2.97
2023-04-06T02:18:16.307Z,2.27
2023-04-06T02:20:19.038Z,2.50
2023-04-06T02:22:21.808Z,2.20
2023-04-06T02:24:24.876Z,2.40
2023-04-06T02:26:27.615Z,2.13
2023-04-06T02:28:31.666Z,2.50
2023-04-06T02:30:34.483Z,2.50
2023-04-06T02:32:37.676Z,2.30
2023-04-06T02:34:40.432Z,2.23
2023-04-06T02:36:43.147Z,2.23
2023-04-06T02:38:46.033Z,2.30
2023-04-06T02:40:48.811Z,2.13
2023-04-06T02:42:51.577Z,2.40
2023-04-06T02:44:55.633Z,2.80
2023-04-06T02:46:58.855Z,2.40
2023-04-06T02:49:01.917Z,2.33
2023-04-06T02:51:04.767Z,2.20
2023-04-06T02:53:07.496Z,2.37
2023-04-06T02:55:11.031Z,1.80
2023-04-06T02:57:13.839Z,2.70
2023-04-06T02:59:16.645Z,2.40
2023-04-06T03:01:21.187Z,2.43
2023-04-06T03:03:24.342Z,2.43
2023-04-06T03:05:27.207Z,2.80
2023-04-06T03:07:29.944Z,2.43
2023-04-06T03:09:32.672Z,2.17
2023-04-06T03:11:36.969Z,2.27
2023-04-06T03:13:40.372Z,2.00
2023-04-06T03:15:43.152Z,2.37
2023-04-06T03:17:47.242Z,2.47
2023-04-06T03:19:50.680Z,1.90
2023-04-06T03:21:53.430Z,2.07
2023-04-06T03:23:56.169Z,2.30
2023-04-06T03:25:58.877Z,2.07
2023-04-06T03:28:03.016Z,2.17
2023-04-06T03:30:06.790Z,2.57
2023-04-06T03:32:11.137Z,2.07
2023-04-06T03:34:15.507Z,2.30
2023-04-06T03:36:18.679Z,2.30
2023-04-06T03:38:21.413Z,2.20
2023-04-06T03:40:24.163Z,1.93
2023-04-06T03:42:27.750Z,2.40
2023-04-06T03:44:30.838Z,2.30
2023-04-06T03:46:33.639Z,2.40
2023-04-06T03:48:37.263Z,2.20
2023-04-06T03:50:41.293Z,2.20
2023-04-06T03:52:44.347Z,2.20
2023-04-06T03:54:47.120Z,2.30
2023-04-06T03:56:49.877Z,2.33
2023-04-06T03:58:52.754Z,2.37
2023-04-06T04:00:56.009Z,2.40
2023-04-06T04:02:58.811Z,2.60
2023-04-06T04:05:01.631Z,2.40
2023-04-06T04:07:06.113Z,2.20
2023-04-06T04:09:13.020Z,2.20
2023-04-06T04:11:16.942Z,2.17
2023-04-06T04:13:19.790Z,2.80
2023-04-06T04:15:22.505Z,2.63
2023-04-06T04:17:26.538Z,2.60
2023-04-06T04:19:29.310Z,2.50
2023-04-06T04:21:32.373Z,2.40
2023-04-06T04:23:37.519Z,2.50
2023-04-06T04:25:40.996Z,2.70
2023-04-06T04:27:43.704Z,2.10
2023-04-06T04:29:46.447Z,2.60
2023-04-06T04:31:49.226Z,2.60
2023-04-06T04:33:52.356Z,2.37
2023-04-06T04:35:55.506Z,2.63
2023-04-06T04:37:58.420Z,2.70
2023-04-06T04:40:02.445Z,2.90
2023-04-06T04:42:05.588Z,2.93
2023-04-06T04:44:08.325Z,2.27
2023-04-06T04:46:11.201Z,2.57
2023-04-06T04:48:13.921Z,2.53
2023-04-06T04:50:18.176Z,2.93
2023-04-06T04:52:20.880Z,3.23
2023-04-06T04:54:23.725Z,2.80
2023-04-06T04:56:28.571Z,2.73
2023-04-06T04:58:31.686Z,2.80
2023-04-06T05:00:34.410Z,2.53
2023-04-06T05:02:37.260Z,2.30
2023-04-06T05:04:40.080Z,3.10
2023-04-06T05:06:43.171Z,3.07
2023-04-06T05:08:45.895Z,2.80
2023-04-06T05:10:49.160Z,2.50
2023-04-06T05:12:53.329Z,2.97
2023-04-06T05:14:56.421Z,2.63
2023-04-06T05:16:59.156Z,2.80
2023-04-06T05:19:01.856Z,2.83
2023-04-06T05:21:04.814Z,3.27
2023-04-06T05:23:07.865Z,2.90
2023-04-06T05:25:11.238Z,2.77
2023-04-06T05:27:13.976Z,3.13
2023-04-06T05:29:18.269Z,3.20
2023-04-06T05:31:21.535Z,2.63
2023-04-06T05:33:24.403Z,2.97
2023-04-06T05:35:27.234Z,3.17
2023-04-06T05:37:30.018Z,2.93
2023-04-06T05:39:32.896Z,3.03
2023-04-06T05:41:38.123Z,2.90
2023-04-06T05:43:40.869Z,2.70
2023-04-06T05:45:46.337Z,3.10
2023-04-06T05:47:49.614Z,3.17
2023-04-06T05:49:52.358Z,3.20
2023-04-06T05:51:55.087Z,3.40
2023-04-06T05:53:58.926Z,3.10
2023-04-06T05:56:03.165Z,3.17
2023-04-06T05:58:05.906Z,3.80
2023-04-06T06:00:10.821Z,3.43
2023-04-06T06:02:15.326Z,3.80
2023-04-06T06:04:18.122Z,3.70
2023-04-06T06:06:20.966Z,3.83
2023-04-06T06:08:25.382Z,3.87
2023-04-06T06:10:28.759Z,3.83
2023-04-06T06:12:31.615Z,3.13
2023-04-06T06:14:34.379Z,3.50
2023-04-06T06:16:37.342Z,3.80
2023-04-06T06:18:42.095Z,4.50
2023-04-06T06:20:44.806Z,3.90
2023-04-06T06:22:47.866Z,3.60
2023-04-06T06:24:51.907Z,3.47
2023-04-06T06:26:54.673Z,3.13
2023-04-06T06:28:57.842Z,3.43
2023-04-06T06:31:02.111Z,3.77
2023-04-06T06:33:05.476Z,3.80
2023-04-06T06:35:10.384Z,3.40
2023-04-06T06:37:13.117Z,2.97
2023-04-06T06:39:16.303Z,3.23
2023-04-06T06:41:19.007Z,3.13
2023-04-06T06:43:21.799Z,3.43
2023-04-06T06:45:26.361Z,3.27
2023-04-06T06:47:29.681Z,3.70
2023-04-06T06:49:32.441Z,3.13
2023-04-06T06:51:36.558Z,3.70
2023-04-06T06:53:39.468Z,3.23
2023-04-06T06:55:42.568Z,3.13
2023-04-06T06:57:47.237Z,3.67
2023-04-06T06:59:50.362Z,3.40
2023-04-06T07:01:53.172Z,3.40
2023-04-06T07:03:56.415Z,3.10
2023-04-06T07:05:59.192Z,2.90
2023-04-06T07:08:03.550Z,3.57
2023-04-06T07:10:06.971Z,3.80
2023-04-06T07:12:10.274Z,3.03
2023-04-06T07:14:13.700Z,3.37
2023-04-06T07:16:16.512Z,3.70
2023-04-06T07:18:19.498Z,3.10
2023-04-06T07:20:22.689Z,3.30
2023-04-06T07:22:25.968Z,3.10
2023-04-06T07:24:30.031Z,3.57
2023-04-06T07:26:32.778Z,3.57
2023-04-06T07:28:35.837Z,2.90
2023-04-06T07:30:39.037Z,3.50
2023-04-06T07:32:41.757Z,3.60
2023-04-06T07:34:46.096Z,3.33
2023-04-06T07:36:49.240Z,3.07
2023-04-06T07:38:51.975Z,3.20
2023-04-06T07:40:56.380Z,3.20
2023-04-06T07:42:59.111Z,3.17
2023-04-06T07:45:02.381Z,3.77
2023-04-06T07:47:05.149Z,3.60
2023-04-06T07:49:07.882Z,3.33
2023-04-06T07:51:15.089Z,3.17
2023-04-06T07:53:18.569Z,3.77
2023-04-06T07:55:21.524Z,3.50
2023-04-06T07:57:25.618Z,3.33
2023-04-06T07:59:28.462Z,3.00
2023-04-06T08:01:31.658Z,3.50
2023-04-06T08:03:35.810Z,3.20
2023-04-06T08:05:38.606Z,3.03
2023-04-06T08:07:42.644Z,3.77
2023-04-06T08:09:45.906Z,3.27
2023-04-06T08:11:49.638Z,2.80
2023-04-06T08:13:53.777Z,2.80
2023-04-06T08:15:56.510Z,3.00
2023-04-06T08:17:59.852Z,2.90
2023-04-06T08:20:04.273Z,3.00
2023-04-06T08:22:07.015Z,3.10
2023-04-06T08:24:10.172Z,2.80
2023-04-06T08:26:13.628Z,3.03
2023-04-06T08:28:17.826Z,3.17
2023-04-06T08:30:22.096Z,3.10
2023-04-06T08:32:24.941Z,3.50
2023-04-06T08:34:28.212Z,3.40
2023-04-06T08:36:30.964Z,2.83
2023-04-06T08:38:33.719Z,3.10
2023-04-06T08:40:38.854Z,3.00
2023-04-06T08:42:42.669Z,3.40
2023-04-06T08:44:46.807Z,3.17
2023-04-06T08:46:51.777Z,3.20
2023-04-06T08:48:54.532Z,2.57
2023-04-06T08:50:57.713Z,3.33
2023-04-06T08:53:00.434Z,3.03
2023-04-06T08:55:03.180Z,3.40
2023-04-06T08:57:06.443Z,3.40
2023-04-06T08:59:09.657Z,2.83
2023-04-06T09:01:14.086Z,2.90
2023-04-06T09:03:18.343Z,2.83
2023-04-06T09:05:21.353Z,2.87
2023-04-06T09:07:24.989Z,2.73
2023-04-06T09:09:27.859Z,3.07
2023-04-06T09:11:30.622Z,3.00
2023-04-06T09:13:33.418Z,2.37
2023-04-06T09:15:36.716Z,2.90
2023-04-06T09:17:39.458Z,2.70
2023-04-06T09:19:49.029Z,2.37
2023-04-06T09:21:51.864Z,2.53
2023-04-06T09:24:01.613Z,2.73
2023-04-06T09:26:07.733Z,2.50
2023-04-06T09:28:10.458Z,2.60
2023-04-06T09:30:15.226Z,2.40
2023-04-06T09:32:18.752Z,2.93
2023-04-06T09:34:23.202Z,2.50
2023-04-06T09:36:33.821Z,2.90
2023-04-06T09:38:38.302Z,2.50
2023-04-06T09:41:00.307Z,2.50
2023-04-06T09:43:07.955Z,2.30
2023-04-06T09:45:11.746Z,2.27
2023-04-06T09:47:14.915Z,2.90
2023-04-06T09:49:17.673Z,2.47
2023-04-06T09:51:20.569Z,2.70
2023-04-06T09:53:24.614Z,2.83
2023-04-06T09:55:31.817Z,2.40
2023-04-06T09:57:37.159Z,2.67
2023-04-06T09:59:42.466Z,2.50
2023-04-06T10:01:45.215Z,2.40
2023-04-06T10:03:52.011Z,2.50
2023-04-06T10:05:59.445Z,2.53
2023-04-06T10:08:04.294Z,2.33
2023-04-06T10:10:09.300Z,2.23
2023-04-06T10:12:12.368Z,2.57
2023-04-06T10:14:19.347Z,2.20
2023-04-06T10:16:27.389Z,2.37
2023-04-06T10:18:33.787Z,2.27
2023-04-06T10:20:40.751Z,2.40
2023-04-06T10:22:45.191Z,2.13
2023-04-06T10:24:47.995Z,2.33
2023-04-06T10:27:01.248Z,2.43
2023-04-06T10:29:05.161Z,1.80
2023-04-06T10:31:09.014Z,2.17
2023-04-06T10:33:15.892Z,2.43
2023-04-06T10:35:18.804Z,2.07
2023-04-06T10:37:22.372Z,2.13
2023-04-06T10:39:26.872Z,2.20
2023-04-06T10:41:34.779Z,2.10
2023-04-06T10:43:39.689Z,2.07
2023-04-06T10:45:44.400Z,2.40
2023-04-06T10:47:47.454Z,2.00
2023-04-06T10:49:50.200Z,2.40
2023-04-06T10:51:53.938Z,2.40
2023-04-06T10:53:57.985Z,2.20
2023-04-06T10:56:00.967Z,2.00
2023-04-06T10:58:04.213Z,2.23
2023-04-06T11:00:11.450Z,2.10
2023-04-06T11:02:22.825Z,2.30
2023-04-06T11:04:26.689Z,2.33
2023-04-06T11:06:32.112Z,2.40
2023-04-06T11:08:36.160Z,2.40
2023-04-06T11:10:39.041Z,2.10
2023-04-06T11:12:41.770Z,2.27
2023-04-06T11:14:55.513Z,2.20
2023-04-06T11:16:59.589Z,2.13
2023-04-06T11:19:03.273Z,1.77
2023-04-06T11:21:06.305Z,2.77
2023-04-06T11:23:09.423Z,2.30
2023-04-06T11:25:14.602Z,2.07
2023-04-06T11:27:17.740Z,2.20
2023-04-06T11:29:21.050Z,2.37
2023-04-06T11:31:27.603Z,2.20
2023-04-06T11:33:31.670Z,2.03
2023-04-06T11:35:36.799Z,1.90
2023-04-06T11:37:40.881Z,2.00
2023-04-06T11:39:46.117Z,2.10
2023-04-06T11:41:50.650Z,2.00
2023-04-06T11:43:56.750Z,2.40
2023-04-06T11:46:03.663Z,2.10
2023-04-06T11:48:06.477Z,2.13
2023-04-06T11:50:12.121Z,2.57
2023-04-06T11:52:16.879Z,1.90
2023-04-06T11:54:19.632Z,1.53
2023-04-06T11:56:28.074Z,1.63
2023-04-06T11:58:31.905Z,2.10
2023-04-06T12:00:35.823Z,2.17
2023-04-06T12:02:38.988Z,1.70
2023-04-06T12:04:41.885Z,1.97
2023-04-06T12:06:46.162Z,2.20
2023-04-06T12:08:49.357Z,1.90
2023-04-06T12:10:52.085Z,2.07
2023-04-06T12:12:55.305Z,1.97
2023-04-06T12:14:58.179Z,1.83
2023-04-06T12:17:01.731Z,1.80
2023-04-06T12:19:05.380Z,2.07
2023-04-06T12:21:08.123Z,2.03
2023-04-06T12:23:13.345Z,1.70
2023-04-06T12:25:19.890Z,2.10
2023-04-06T12:27:22.663Z,2.03
2023-04-06T12:29:26.645Z,2.03
2023-04-06T12:31:29.419Z,2.10
2023-04-06T12:33:32.779Z,2.00
2023-04-06T12:35:36.108Z,2.20
2023-04-06T12:37:39.443Z,1.93
2023-04-06T12:39:45.419Z,2.00
2023-04-06T12:41:48.419Z,2.17
2023-04-06T12:43:51.648Z,2.10
2023-04-06T12:45:54.693Z,1.77
2023-04-06T12:47:57.509Z,2.00
2023-04-06T12:50:00.640Z,2.00
2023-04-06T12:52:04.263Z,1.93
2023-04-06T12:54:07.819Z,1.87
2023-04-06T12:56:16.723Z,2.00
2023-04-06T12:58:19.518Z,2.20
2023-04-06T13:00:23.368Z,2.30
2023-04-06T13:02:27.129Z,1.80
2023-04-06T13:04:30.042Z,2.10
2023-04-06T13:06:32.754Z,2.07
2023-04-06T13:08:36.471Z,2.10
2023-04-06T13:10:40.031Z,1.90
2023-04-06T13:12:44.069Z,2.13
2023-04-06T13:14:53.391Z,2.00
2023-04-06T13:16:56.401Z,1.97
2023-04-06T13:18:59.505Z,2.20
2023-04-06T13:21:02.406Z,2.30
2023-04-06T13:23:07.826Z,2.17
2023-04-06T13:25:14.566Z,2.23
2023-04-06T13:27:19.569Z,1.50
2023-04-06T13:29:23.653Z,2.10
2023-04-06T13:31:31.134Z,1.83
2023-04-06T13:33:34.265Z,1.90
2023-04-06T13:35:36.985Z,2.07
2023-04-06T13:37:39.787Z,1.93
2023-04-06T13:39:42.611Z,1.77
2023-04-06T13:41:45.681Z,2.20
2023-04-06T13:43:48.469Z,1.83
2023-04-06T13:45:53.327Z,2.07
2023-04-06T13:47:56.236Z,2.27
2023-04-06T13:49:58.978Z,2.07
2023-04-06T13:52:01.784Z,2.10
2023-04-06T13:54:05.142Z,1.97
2023-04-06T13:56:08.934Z,1.80
2023-04-06T13:58:12.086Z,2.10
2023-04-06T14:00:15.841Z,2.00
2023-04-06T14:02:20.801Z,2.50
2023-04-06T14:04:23.686Z,1.83
2023-04-06T14:06:31.283Z,2.00
2023-04-06T14:08:34.787Z,2.07
2023-04-06T14:10:39.667Z,2.30
2023-04-06T14:12:43.307Z,1.60
2023-04-06T14:14:46.034Z,1.90
2023-04-06T14:16:49.046Z,1.97
2023-04-06T14:18:53.409Z,1.50
2023-04-06T14:20:57.325Z,2.10
2023-04-06T14:23:02.311Z,1.90
2023-04-06T14:25:08.856Z,2.13
2023-04-06T14:27:12.115Z,1.87
2023-04-06T14:29:16.691Z,2.00
2023-04-06T14:31:19.527Z,1.83
2023-04-06T14:33:22.319Z,1.90
2023-04-06T14:35:41.386Z,1.83
2023-04-06T14:37:44.314Z,1.83
2023-04-06T14:39:46.988Z,1.87
2023-04-06T14:41:50.972Z,2.13
2023-04-06T14:43:54.403Z,1.80
2023-04-06T14:45:57.165Z,1.80
2023-04-06T14:48:02.202Z,2.10
2023-04-06T14:50:06.036Z,2.20
2023-04-06T14:52:12.988Z,2.10
2023-04-06T14:54:16.039Z,1.80
2023-04-06T14:56:22.721Z,2.13
2023-04-06T14:58:25.556Z,2.03
2023-04-06T15:00:28.236Z,1.87
2023-04-06T15:02:32.806Z,2.30
2023-04-06T15:04:36.366Z,2.07
2023-04-06T15:06:39.518Z,1.60
2023-04-06T15:08:43.874Z,1.77
2023-04-06T15:10:46.827Z,1.63
2023-04-06T15:12:49.622Z,1.73
2023-04-06T15:14:52.284Z,2.10
2023-04-06T15:16:55.543Z,1.60
2023-04-06T15:18:58.198Z,2.00
2023-04-06T15:21:01.550Z,1.60
2023-04-06T15:23:04.462Z,1.70
2023-04-06T15:25:09.065Z,1.73
2023-04-06T15:27:11.729Z,1.53
2023-04-06T15:29:14.459Z,2.00
2023-04-06T15:31:28.713Z,1.63
2023-04-06T15:33:39.419Z,1.57
2023-04-06T15:35:43.521Z,1.70
2023-04-06T15:37:49.436Z,1.77
2023-04-06T15:39:52.206Z,1.60
2023-04-06T15:41:56.961Z,1.70
2023-04-06T15:43:59.935Z,1.53
2023-04-06T15:46:04.644Z,1.70
2023-04-06T15:48:08.026Z,1.80
2023-04-06T15:50:11.377Z,1.90
2023-04-06T15:52:14.320Z,1.90
2023-04-06T15:54:18.227Z,1.83
2023-04-06T15:56:21.010Z,1.40
2023-04-06T15:58:24.974Z,1.50
2023-04-06T16:00:28.922Z,1.60
2023-04-06T16:02:31.903Z,1.40
2023-04-06T16:04:34.911Z,1.50
2023-04-06T16:06:37.629Z,1.60
2023-04-06T16:08:41.013Z,1.67
2023-04-06T16:10:43.718Z,2.00
2023-04-06T16:12:46.493Z,1.90
2023-04-06T16:14:53.433Z,2.00
2023-04-06T16:16:57.394Z,1.90
2023-04-06T16:19:00.074Z,1.50
2023-04-06T16:21:02.863Z,1.30
2023-04-06T16:23:05.723Z,1.77
2023-04-06T16:25:09.214Z,1.53
2023-04-06T16:27:12.185Z,1.60
2023-04-06T16:29:16.837Z,1.50
2023-04-06T16:31:22.170Z,1.60
2023-04-06T16:33:24.956Z,2.00
2023-04-06T16:35:27.647Z,1.67
2023-04-06T16:37:31.350Z,1.60
2023-04-06T16:39:33.845Z,2.00
2023-04-06T16:41:37.088Z,1.90
2023-04-06T16:43:39.750Z,2.00
2023-04-06T16:45:42.457Z,1.70
2023-04-06T16:47:47.603Z,1.80
2023-04-06T16:49:50.294Z,1.70
2023-04-06T16:51:52.953Z,2.10
2023-04-06T16:53:56.173Z,1.83
2023-04-06T16:55:58.814Z,1.90
2023-04-06T16:58:02.196Z,1.80
2023-04-06T17:00:06.698Z,1.73
2023-04-06T17:02:09.707Z,1.50
2023-04-06T17:04:16.680Z,1.60
2023-04-06T17:06:19.503Z,1.70
2023-04-06T17:08:22.842Z,2.30
2023-04-06T17:10:33.184Z,2.30
2023-04-06T17:12:39.899Z,2.00
2023-04-06T17:14:42.590Z,1.70
2023-04-06T17:16:45.761Z,2.00
2023-04-06T17:18:48.444Z,1.80
2023-04-06T17:20:52.416Z,1.67
2023-04-06T17:22:55.076Z,1.67
2023-04-06T17:24:57.732Z,1.80
2023-04-06T17:27:00.485Z,2.10
2023-04-06T17:29:03.469Z,1.50
2023-04-06T17:31:08.451Z,2.07
2023-04-06T17:33:12.491Z,1.90
2023-04-06T17:35:15.449Z,2.10
2023-04-06T17:37:19.481Z,2.60
2023-04-06T17:39:22.266Z,2.90
2023-04-06T17:41:25.007Z,2.40
2023-04-06T17:43:28.124Z,2.10
2023-04-06T17:45:30.778Z,2.00
2023-04-06T17:47:33.524Z,2.27
2023-04-06T17:49:36.336Z,2.13
2023-04-06T17:51:39.056Z,2.20
2023-04-06T17:53:43.064Z,1.93
2023-04-06T17:55:46.078Z,1.80
2023-04-06T17:57:48.814Z,2.10
2023-04-06T17:59:51.569Z,2.10
2023-04-06T18:01:54.330Z,1.80
2023-04-06T18:03:57.464Z,2.27
2023-04-06T18:06:10.381Z,2.20
2023-04-06T18:08:14.700Z,2.50
2023-04-06T18:10:19.091Z,2.67
2023-04-06T18:12:21.807Z,2.17
2023-04-06T18:14:24.568Z,2.20
2023-04-06T18:16:28.406Z,2.40
2023-04-06T18:18:31.529Z,2.20
2023-04-06T18:20:34.229Z,2.27
2023-04-06T18:22:37.688Z,2.30
2023-04-06T18:24:42.636Z,2.33
2023-04-06T18:26:47.837Z,2.30
2023-04-06T18:28:50.850Z,2.30
2023-04-06T18:30:53.584Z,2.40
2023-04-06T18:32:56.569Z,2.47
2023-04-06T18:34:59.730Z,2.40
2023-04-06T18:37:02.550Z,2.27
2023-04-06T18:39:05.581Z,2.10
2023-04-06T18:41:10.250Z,2.73
2023-04-06T18:43:14.868Z,2.03
2023-04-06T18:45:17.903Z,2.40
2023-04-06T18:47:20.650Z,2.30
2023-04-06T18:49:25.923Z,2.63
2023-04-06T18:51:29.996Z,2.37
2023-04-06T18:53:32.820Z,2.03
2023-04-06T18:55:36.310Z,2.43
2023-04-06T18:57:39.371Z,2.50
2023-04-06T18:59:43.329Z,2.40
2023-04-06T19:01:50.931Z,2.60
2023-04-06T19:03:54.445Z,2.10
2023-04-06T19:05:57.405Z,2.30
2023-04-06T19:08:00.151Z,2.33
2023-04-06T19:10:03.189Z,2.53
2023-04-06T19:12:05.912Z,2.80
2023-04-06T19:14:08.604Z,2.57
2023-04-06T19:16:12.588Z,2.33
2023-04-06T19:18:15.654Z,2.20
2023-04-06T19:20:18.491Z,2.57
2023-04-06T19:22:21.281Z,3.23
2023-04-06T19:24:24.008Z,3.37
2023-04-06T19:26:28.017Z,2.60
2023-04-06T19:28:30.692Z,2.93
2023-04-06T19:30:33.367Z,2.60
2023-04-06T19:32:37.368Z,2.87
2023-04-06T19:34:40.625Z,2.73
2023-04-06T19:36:43.311Z,3.20
2023-04-06T19:38:46.104Z,2.90
2023-04-06T19:40:48.822Z,3.00
2023-04-06T19:42:51.761Z,3.10
2023-04-06T19:44:54.421Z,3.20
2023-04-06T19:46:57.117Z,2.60
2023-04-06T19:49:01.191Z,2.80
2023-04-06T19:51:04.161Z,3.07
2023-04-06T19:53:08.172Z,3.00
2023-04-06T19:55:11.518Z,2.73
2023-04-06T19:57:14.219Z,3.47
2023-04-06T19:59:17.844Z,3.03
2023-04-06T20:01:21.204Z,3.30
2023-04-06T20:03:24.038Z,3.07
2023-04-06T20:05:28.101Z,3.10
2023-04-06T20:07:31.100Z,3.17
2023-04-06T20:09:33.773Z,3.37
2023-04-06T20:11:36.543Z,3.20
2023-04-06T20:13:39.354Z,3.33
2023-04-06T20:15:43.718Z,3.30
2023-04-06T20:17:46.581Z,2.80
2023-04-06T20:19:49.812Z,3.33
2023-04-06T20:21:54.182Z,3.57
2023-04-06T20:23:57.355Z,3.13
2023-04-06T20:26:00.849Z,3.00
2023-04-06T20:28:03.758Z,3.17
2023-04-06T20:30:07.291Z,3.40
2023-04-06T20:32:11.186Z,4.23
2023-04-06T20:34:14.029Z,2.80
2023-04-06T20:36:16.988Z,3.40
2023-04-06T20:38:32.366Z,3.20
2023-04-06T20:40:36.952Z,3.70
2023-04-06T20:42:39.681Z,3.20
2023-04-06T20:44:42.818Z,3.60
2023-04-06T20:46:45.936Z,3.70
2023-04-06T20:48:48.706Z,3.33
2023-04-06T20:50:51.402Z,3.13
2023-04-06T20:52:55.907Z,3.50
2023-04-06T20:55:01.207Z,3.50
2023-04-06T20:57:03.879Z,4.00
2023-04-06T20:59:06.524Z,3.70
2023-04-06T21:01:13.433Z,3.47
2023-04-06T21:03:16.874Z,3.53
2023-04-06T21:05:20.630Z,3.30
2023-04-06T21:07:26.187Z,3.57
2023-04-06T21:09:28.905Z,3.10
2023-04-06T21:11:32.845Z,3.67
2023-04-06T21:13:35.674Z,3.63
2023-04-06T21:15:38.883Z,3.83
2023-04-06T21:17:41.614Z,3.33
2023-04-06T21:19:44.346Z,3.57
2023-04-06T21:21:47.024Z,3.37
2023-04-06T21:23:52.774Z,3.50
2023-04-06T21:25:57.244Z,3.70
2023-04-06T21:28:01.491Z,3.70
2023-04-06T21:30:04.372Z,3.83
2023-04-06T21:32:07.406Z,3.20
2023-04-06T21:34:10.921Z,3.10
2023-04-06T21:36:13.723Z,3.67
2023-04-06T21:38:16.419Z,3.70
2023-04-06T21:40:20.340Z,3.57
2023-04-06T21:42:23.043Z,3.80
2023-04-06T21:44:26.982Z,3.77
2023-04-06T21:46:30.023Z,3.20
2023-04-06T21:48:32.769Z,3.37
2023-04-06T21:50:39.961Z,3.60
2023-04-06T21:52:42.896Z,3.80
2023-04-06T21:54:45.919Z,3.80
2023-04-06T21:56:48.765Z,3.40
2023-04-06T21:58:51.544Z,3.90
2023-04-06T22:00:55.518Z,3.80
2023-04-06T22:02:58.858Z,3.63
2023-04-06T22:05:01.783Z,3.73
2023-04-06T22:07:04.480Z,3.43
2023-04-06T22:09:07.236Z,3.77
2023-04-06T22:11:11.496Z,3.70
2023-04-06T22:13:15.022Z,3.63
2023-04-06T22:15:17.793Z,3.60
2023-04-06T22:17:21.827Z,3.60
2023-04-06T22:19:24.894Z,3.83
2023-04-06T22:21:27.535Z,3.53
2023-04-06T22:23:31.868Z,4.00
2023-04-06T22:25:34.548Z,3.83
2023-04-06T22:27:37.205Z,3.40
2023-04-06T22:29:39.958Z,3.40
2023-04-06T22:31:47.193Z,3.90
2023-04-06T22:33:51.397Z,3.70
2023-04-06T22:35:54.082Z,4.00
2023-04-06T22:37:56.875Z,3.90
2023-04-06T22:39:59.571Z,3.97
2023-04-06T22:42:02.260Z,3.77
2023-04-06T22:44:04.927Z,4.57
2023-04-06T22:46:08.025Z,3.70
2023-04-06T22:48:10.930Z,3.63
2023-04-06T22:50:15.924Z,3.80
2023-04-06T22:52:18.689Z,3.63
2023-04-06T22:54:21.912Z,3.57
2023-04-06T22:56:24.829Z,4.00
2023-04-06T22:58:27.473Z,3.90
2023-04-06T23:00:30.192Z,3.60
2023-04-06T23:02:32.983Z,3.53
2023-04-06T23:04:35.848Z,3.73
2023-04-06T23:06:39.777Z,4.40
2023-04-06T23:08:42.800Z,4.30
2023-04-06T23:10:45.474Z,4.20
2023-04-06T23:12:48.299Z,4.00
2023-04-06T23:14:51.505Z,3.77
2023-04-06T23:16:54.232Z,3.73
2023-04-06T23:18:57.000Z,3.63
2023-04-06T23:20:59.669Z,3.73
2023-04-06T23:23:03.597Z,3.87
2023-04-06T23:25:07.631Z,4.50
2023-04-06T23:27:10.305Z,3.73
2023-04-06T23:29:13.306Z,3.57
2023-04-06T23:31:16.288Z,3.90
2023-04-06T23:33:19.190Z,3.90
2023-04-06T23:35:22.507Z,3.47
2023-04-06T23:37:26.048Z,3.77
2023-04-06T23:39:30.376Z,3.60
2023-04-06T23:41:33.444Z,3.83
2023-04-06T23:43:36.363Z,4.30
2023-04-06T23:45:41.244Z,3.70
2023-04-06T23:47:45.844Z,4.00
2023-04-06T23:49:48.609Z,3.80
2023-04-06T23:51:51.246Z,3.70
2023-04-06T23:53:54.273Z,3.50
2023-04-06T23:55:58.239Z,4.00
2023-04-06T23:58:01.863Z,4.10
